Avon, Ohio
Current Conditions -  °F | °C
As of 2:51 PM on Thursday 20 Nov 2014 (Local Time) from KCLE Reporting Station
Broken Clouds Broken Clouds  
Wind Chill: 13°   Ceiling: 4000
Heat Index: 26°   Visibility: 10mi
Dew Point: 13°   Wind: 18mph
Humidity: 58%   Direction: 260°W
Pressure: 30"   Gusts: NA
Location:  41.47°N, 82.02°W
Report Text: KCLE 201951Z 26016KT 10SM BKN040 M03/M11 A3000 RMK AO2 PK WND 23027/1911 SLP170 T10331106 $
Loading
Personal Weather Stations






























Interactive Weather Map New forecast layout! Learn more

10-Day Weather Forecast

Advertisements
Track Severe Weather on mobile